Time;durP1;ratioP1;P1;durP2;ratioP2;P2;SDS_P1;SDS_P2;PMS_P1;PMS_P2;Temp;Humidity;BMP_temperature;BMP_pressure;BME280_temperature;BME280_humidity;BME280_pressure;Samples;Min_cycle;Max_cycle;Signal;HPM_P1;HPM_P2
2021/06/30 00:02:24;;;;;;;4.95;2.30;;;16.60;90.10;;;;;;4991305;28;20026;-82
2021/06/30 00:04:50;;;;;;;4.03;2.50;;;16.60;90.20;;;;;;4981548;28;20142;-83
2021/06/30 00:07:16;;;;;;;7.32;2.85;;;16.70;90.20;;;;;;4991127;28;20022;-81
2021/06/30 00:09:42;;;;;;;6.43;2.65;;;16.70;90.10;;;;;;4992343;28;20018;-81
2021/06/30 00:12:09;;;;;;;4.93;2.80;;;16.70;89.80;;;;;;4992217;28;20038;-81
2021/06/30 00:14:35;;;;;;;4.40;3.10;;;16.80;89.60;;;;;;4992920;28;20384;-82
2021/06/30 00:17:02;;;;;;;3.88;2.65;;;16.90;89.20;;;;;;4992827;28;20785;-82
2021/06/30 00:19:28;;;;;;;3.20;2.53;;;16.90;88.80;;;;;;4992422;28;20022;-81
2021/06/30 00:21:55;;;;;;;2.63;2.43;;;16.90;88.50;;;;;;4992568;28;20391;-82
2021/06/30 00:24:21;;;;;;;5.18;2.50;;;16.90;88.50;;;;;;4992337;28;20322;-81
2021/06/30 00:26:47;;;;;;;4.72;2.47;;;16.90;88.60;;;;;;4992504;28;20027;-82
2021/06/30 00:29:12;;;;;;;4.28;2.63;;;16.90;88.40;;;;;;4992231;28;20081;-81
2021/06/30 00:31:38;;;;;;;3.13;2.63;;;16.90;88.40;;;;;;4992028;28;20018;-80
2021/06/30 00:34:04;;;;;;;3.80;2.35;;;17.00;88.40;;;;;;4993298;28;20026;-82
2021/06/30 00:36:35;;;;;;;2.92;2.30;;;17.00;88.30;;;;;;4994828;28;20109;-82
2021/06/30 00:39:04;;;;;;;5.40;3.05;;;17.10;88.20;;;;;;4997499;28;20033;-82
2021/06/30 00:41:31;;;;;;;6.13;3.22;;;17.10;88.00;;;;;;4996501;28;20026;-81
2021/06/30 00:43:57;;;;;;;4.20;2.70;;;17.20;87.90;;;;;;4996722;28;20558;-80
2021/06/30 00:46:36;;;;;;;4.07;2.78;;;17.10;87.80;;;;;;4999659;28;20038;-80
2021/06/30 00:49:04;;;;;;;4.13;2.85;;;17.10;88.20;;;;;;4997810;28;20033;-81
2021/06/30 00:51:30;;;;;;;3.45;2.58;;;17.10;88.30;;;;;;4994584;28;20030;-83
2021/06/30 00:53:56;;;;;;;7.00;2.88;;;17.10;88.30;;;;;;4995784;28;20034;-83
2021/06/30 00:56:26;;;;;;;3.15;2.85;;;17.10;88.30;;;;;;4995980;28;20396;-81
2021/06/30 00:58:54;;;;;;;3.35;3.05;;;17.10;88.40;;;;;;4995685;28;20022;-81
2021/06/30 01:01:21;;;;;;;4.95;2.92;;;17.10;88.40;;;;;;4995959;28;20031;-81
2021/06/30 01:03:48;;;;;;;4.18;2.90;;;17.20;88.40;;;;;;4995975;28;20062;-80
2021/06/30 01:06:15;;;;;;;5.85;2.63;;;17.20;88.20;;;;;;4996202;28;20030;-80
2021/06/30 01:08:41;;;;;;;4.15;3.22;;;17.20;87.90;;;;;;4996108;28;20108;-81
2021/06/30 01:11:08;;;;;;;6.80;3.03;;;17.10;88.30;;;;;;4995685;28;20061;-81
2021/06/30 01:13:34;;;;;;;3.63;2.67;;;17.10;88.30;;;;;;4995829;28;20113;-81
2021/06/30 01:16:02;;;;;;;4.50;2.83;;;17.10;88.40;;;;;;4995228;28;20050;-81
2021/06/30 01:18:30;;;;;;;4.22;2.60;;;17.20;88.40;;;;;;4995646;28;20476;-80
2021/06/30 01:20:57;;;;;;;3.85;2.80;;;17.20;88.40;;;;;;4995258;28;20026;-80
2021/06/30 01:23:23;;;;;;;4.50;2.88;;;17.20;89.10;;;;;;4995542;28;20085;-81
2021/06/30 01:25:50;;;;;;;4.90;3.85;;;17.10;88.40;;;;;;4995340;28;20077;-80
2021/06/30 01:28:17;;;;;;;5.18;3.33;;;17.10;88.80;;;;;;4995916;28;20376;-80
2021/06/30 01:30:45;;;;;;;4.88;3.17;;;17.20;88.70;;;;;;4995525;28;20038;-82
2021/06/30 01:33:11;;;;;;;4.85;2.97;;;17.20;88.60;;;;;;4994110;28;20018;-81
2021/06/30 01:35:38;;;;;;;3.58;2.95;;;17.20;88.50;;;;;;4995371;28;20396;-80
2021/06/30 01:38:04;;;;;;;4.50;2.60;;;17.30;88.40;;;;;;4995337;28;20132;-81
2021/06/30 01:40:30;;;;;;;10.05;3.90;;;17.30;88.30;;;;;;4995474;28;20037;-82
2021/06/30 01:42:58;;;;;;;4.80;3.30;;;17.40;88.50;;;;;;4995147;28;20038;-81
2021/06/30 01:45:24;;;;;;;3.33;2.90;;;17.40;88.00;;;;;;4995041;28;20026;-80
2021/06/30 01:47:50;;;;;;;4.53;3.25;;;17.30;88.30;;;;;;4991665;28;20125;-81
2021/06/30 01:50:17;;;;;;;5.63;3.60;;;17.30;88.50;;;;;;4995043;28;20097;-80
2021/06/30 01:52:44;;;;;;;4.50;3.20;;;17.40;88.60;;;;;;4994502;28;20022;-82
2021/06/30 01:55:12;;;;;;;8.05;3.50;;;17.40;88.10;;;;;;4994815;28;20090;-82
2021/06/30 01:57:46;;;;;;;8.70;3.72;;;17.40;88.10;;;;;;4993662;28;20510;-82
2021/06/30 02:00:15;;;;;;;3.65;3.15;;;17.50;88.10;;;;;;4994639;28;20030;-83
2021/06/30 02:02:41;;;;;;;6.20;3.65;;;17.50;87.80;;;;;;4994414;28;20456;-82
2021/06/30 02:05:16;;;;;;;4.18;3.05;;;17.40;88.40;;;;;;4993379;28;20045;-83
2021/06/30 02:07:51;;;;;;;4.32;3.53;;;17.50;88.30;;;;;;4994678;28;20056;-82
2021/06/30 02:10:18;;;;;;;6.03;3.50;;;17.40;88.20;;;;;;4994444;28;20023;-81
2021/06/30 02:12:44;;;;;;;5.15;3.55;;;17.50;88.20;;;;;;4994068;28;20061;-81
2021/06/30 02:15:23;;;;;;;5.63;3.63;;;17.50;88.00;;;;;;4994527;28;20077;-82
2021/06/30 02:17:49;;;;;;;5.18;3.35;;;17.50;88.10;;;;;;4993041;28;20113;-82
2021/06/30 02:20:16;;;;;;;5.20;3.25;;;17.70;88.00;;;;;;4994536;28;20022;-82
2021/06/30 02:22:43;;;;;;;8.15;3.42;;;17.70;87.40;;;;;;4993922;28;21088;-81
2021/06/30 02:25:25;;;;;;;7.68;3.47;;;17.60;87.40;;;;;;4994113;28;20022;-81
2021/06/30 02:27:51;;;;;;;6.32;3.63;;;17.70;87.40;;;;;;4993830;28;20039;-82
2021/06/30 02:30:23;;;;;;;7.63;3.80;;;17.60;87.70;;;;;;4994260;28;20053;-81
2021/06/30 02:32:49;;;;;;;5.20;3.47;;;17.60;87.90;;;;;;4994005;28;20088;-80
2021/06/30 02:35:19;;;;;;;4.38;3.28;;;17.70;87.90;;;;;;4994196;28;20022;-82
2021/06/30 02:37:46;;;;;;;6.10;4.43;;;17.80;87.30;;;;;;4994730;28;20082;-81
2021/06/30 02:40:13;;;;;;;4.28;3.55;;;17.70;87.00;;;;;;4995124;28;20023;-82
2021/06/30 02:42:41;;;;;;;6.40;3.45;;;17.80;86.70;;;;;;4994209;28;20049;-83
2021/06/30 02:45:09;;;;;;;7.22;3.38;;;17.70;87.10;;;;;;4993826;28;20050;-80
2021/06/30 02:47:37;;;;;;;8.80;3.92;;;17.70;86.60;;;;;;4992741;28;20143;-80
2021/06/30 02:50:05;;;;;;;6.53;3.85;;;17.70;86.90;;;;;;4993516;28;20094;-80
2021/06/30 02:52:31;;;;;;;6.35;3.85;;;17.80;86.80;;;;;;4989337;28;20031;-79
2021/06/30 02:54:57;;;;;;;3.75;3.00;;;17.90;86.50;;;;;;4989757;28;20046;-81
2021/06/30 02:57:23;;;;;;;4.53;3.28;;;17.90;86.10;;;;;;4992128;28;20026;-80
2021/06/30 02:59:49;;;;;;;5.00;3.78;;;18.00;85.80;;;;;;4991318;28;20030;-81
2021/06/30 03:02:14;;;;;;;5.80;3.30;;;18.00;85.60;;;;;;4993306;28;20034;-81
2021/06/30 03:04:40;;;;;;;4.68;3.47;;;18.00;85.50;;;;;;4993429;28;20050;-81
2021/06/30 03:07:06;;;;;;;3.72;3.00;;;17.90;85.30;;;;;;4993361;28;20052;-79
2021/06/30 03:09:32;;;;;;;4.35;3.28;;;17.90;85.90;;;;;;4993525;28;20036;-80
2021/06/30 03:11:58;;;;;;;7.72;3.55;;;17.90;86.10;;;;;;4993623;28;20048;-80
2021/06/30 03:14:24;;;;;;;4.45;3.20;;;18.20;85.60;;;;;;4992272;28;20057;-80
2021/06/30 03:16:50;;;;;;;5.82;3.15;;;18.30;84.90;;;;;;4993309;28;20506;-81
2021/06/30 03:19:17;;;;;;;4.57;3.15;;;18.20;84.60;;;;;;4993076;28;20015;-82
2021/06/30 03:21:42;;;;;;;5.25;3.65;;;18.30;84.50;;;;;;4991839;28;20487;-80
2021/06/30 03:24:09;;;;;;;5.18;3.30;;;18.10;84.70;;;;;;4993001;28;20037;-80
2021/06/30 03:26:35;;;;;;;3.73;3.30;;;18.20;84.70;;;;;;4993048;28;20034;-80
2021/06/30 03:29:02;;;;;;;7.45;4.47;;;18.20;84.30;;;;;;4992955;28;20838;-80
2021/06/30 03:31:29;;;;;;;6.53;3.13;;;18.30;84.20;;;;;;4993547;28;20026;-80
2021/06/30 03:33:55;;;;;;;7.03;3.03;;;18.40;83.60;;;;;;4993099;28;20025;-81
2021/06/30 03:36:21;;;;;;;4.63;3.65;;;18.40;83.20;;;;;;4979212;28;20376;-80
2021/06/30 03:38:47;;;;;;;9.23;3.03;;;18.40;83.30;;;;;;4992792;28;20026;-80
2021/06/30 03:41:12;;;;;;;6.40;3.30;;;18.50;82.70;;;;;;4992748;28;20033;-80
2021/06/30 03:43:38;;;;;;;7.53;3.42;;;18.50;82.30;;;;;;4992949;28;20146;-80
2021/06/30 03:46:04;;;;;;;4.57;4.07;;;18.50;82.60;;;;;;4992468;28;20038;-81
2021/06/30 03:48:30;;;;;;;5.80;3.05;;;18.50;82.90;;;;;;4992918;28;20034;-82
2021/06/30 03:50:56;;;;;;;4.85;3.20;;;18.70;82.70;;;;;;4992716;28;20476;-81
2021/06/30 03:53:21;;;;;;;3.75;3.00;;;18.70;81.70;;;;;;4991912;28;20066;-80
2021/06/30 03:55:47;;;;;;;5.00;3.42;;;18.70;81.50;;;;;;4992838;28;20022;-82
2021/06/30 03:58:13;;;;;;;6.43;2.78;;;18.80;81.40;;;;;;4992716;28;20018;-80
2021/06/30 04:00:39;;;;;;;6.53;3.50;;;18.90;80.20;;;;;;4991846;28;20205;-81
2021/06/30 04:03:05;;;;;;;6.28;3.85;;;19.00;79.90;;;;;;4985505;28;20040;-79
2021/06/30 04:05:31;;;;;;;3.47;3.17;;;19.00;80.10;;;;;;4993113;28;20022;-81
2021/06/30 04:07:57;;;;;;;6.82;2.75;;;19.20;79.90;;;;;;4992296;28;20480;-79
2021/06/30 04:10:23;;;;;;;4.93;3.45;;;19.30;79.90;;;;;;4992332;28;20065;-81
2021/06/30 04:12:49;;;;;;;7.78;2.90;;;19.50;78.80;;;;;;4996047;28;20046;-80
2021/06/30 04:15:15;;;;;;;5.68;3.08;;;19.40;78.30;;;;;;4996410;28;20364;-81
2021/06/30 04:17:41;;;;;;;6.78;2.70;;;19.50;78.00;;;;;;4996486;28;20105;-80
2021/06/30 04:20:09;;;;;;;4.15;2.60;;;19.70;77.60;;;;;;4991736;28;20027;-81
2021/06/30 04:22:36;;;;;;;6.47;3.17;;;19.90;77.40;;;;;;4996075;28;20096;-80
2021/06/30 04:25:04;;;;;;;4.18;2.53;;;19.90;76.70;;;;;;4996246;28;20018;-79
2021/06/30 04:27:31;;;;;;;4.57;3.03;;;19.90;76.30;;;;;;4993282;28;20139;-81
2021/06/30 04:29:58;;;;;;;4.00;3.15;;;19.80;76.50;;;;;;4996103;28;20034;-79
2021/06/30 04:32:24;;;;;;;5.65;3.42;;;19.80;76.30;;;;;;4995878;28;20042;-79
2021/06/30 04:34:50;;;;;;;5.07;3.10;;;19.80;76.80;;;;;;4995976;28;20145;-80
2021/06/30 04:37:15;;;;;;;3.45;2.30;;;19.90;76.70;;;;;;4996018;28;20073;-81
2021/06/30 04:39:41;;;;;;;6.28;2.95;;;20.00;76.60;;;;;;4995981;28;20018;-80
2021/06/30 04:42:07;;;;;;;3.50;2.42;;;20.10;76.00;;;;;;4995968;28;20037;-82
2021/06/30 04:44:33;;;;;;;4.63;3.20;;;20.10;75.70;;;;;;4996140;28;20384;-80
2021/06/30 04:46:59;;;;;;;5.13;3.10;;;20.10;75.80;;;;;;4996694;28;20034;-80
2021/06/30 04:49:28;;;;;;;5.78;2.92;;;20.00;76.50;;;;;;4997634;28;20097;-81
2021/06/30 04:51:54;;;;;;;6.07;3.08;;;20.30;76.20;;;;;;5000091;28;20041;-79
2021/06/30 04:54:22;;;;;;;3.28;2.55;;;20.60;74.70;;;;;;4997648;28;20491;-80
2021/06/30 04:56:48;;;;;;;7.15;3.10;;;20.60;73.50;;;;;;4997263;28;20029;-80
2021/06/30 04:59:13;;;;;;;4.00;2.38;;;20.70;73.70;;;;;;4995515;28;20427;-81
2021/06/30 05:01:39;;;;;;;5.07;2.40;;;20.90;73.00;;;;;;4995365;28;20337;-80
2021/06/30 05:04:05;;;;;;;3.60;2.80;;;21.10;72.60;;;;;;4995908;28;20088;-79
2021/06/30 05:06:31;;;;;;;4.28;2.80;;;21.50;71.90;;;;;;4995511;28;20034;-81
2021/06/30 05:08:57;;;;;;;3.55;1.90;;;21.70;70.70;;;;;;4995188;28;20015;-80
2021/06/30 05:11:23;;;;;;;4.45;2.33;;;21.70;69.80;;;;;;4995237;28;20054;-79
2021/06/30 05:13:49;;;;;;;6.97;2.97;;;21.70;70.20;;;;;;4997406;28;20026;-80
2021/06/30 05:16:14;;;;;;;2.83;2.47;;;21.80;69.70;;;;;;4999396;28;20085;-82
2021/06/30 05:18:40;;;;;;;4.50;2.70;;;21.90;69.00;;;;;;4996520;28;20388;-81
2021/06/30 05:21:07;;;;;;;5.20;2.30;;;21.80;68.80;;;;;;4995466;28;20121;-80
2021/06/30 05:23:33;;;;;;;3.95;2.58;;;21.50;69.70;;;;;;4990201;28;20034;-81
2021/06/30 05:25:59;;;;;;;4.03;2.50;;;21.50;70.20;;;;;;4994935;28;20078;-80
2021/06/30 05:28:25;;;;;;;4.78;2.50;;;21.50;70.80;;;;;;4995240;28;20033;-81
2021/06/30 05:30:52;;;;;;;4.10;2.60;;;21.50;69.60;;;;;;4994156;28;21040;-81
2021/06/30 05:33:17;;;;;;;7.25;3.13;;;21.50;69.70;;;;;;4996819;28;20101;-80
2021/06/30 05:35:43;;;;;;;2.88;2.50;;;21.40;70.70;;;;;;4996312;28;20105;-82
2021/06/30 05:38:09;;;;;;;4.03;2.38;;;21.40;70.10;;;;;;4996122;28;20512;-84
2021/06/30 05:40:35;;;;;;;3.83;2.70;;;21.90;69.90;;;;;;4995272;28;20026;-83
2021/06/30 05:43:01;;;;;;;4.53;2.40;;;22.70;67.30;;;;;;4995223;28;20054;-85
2021/06/30 05:45:26;;;;;;;6.03;2.67;;;23.00;65.40;;;;;;4995213;28;20445;-82
2021/06/30 05:47:52;;;;;;;5.43;2.20;;;23.70;65.00;;;;;;4994630;28;20038;-80
2021/06/30 05:50:21;;;;;;;6.53;2.40;;;24.80;61.70;;;;;;4993649;28;20050;-82
2021/06/30 05:52:47;;;;;;;3.00;2.47;;;26.00;58.50;;;;;;4994808;28;20105;-81
2021/06/30 05:55:14;;;;;;;3.97;2.15;;;27.10;55.20;;;;;;4997617;28;20025;-81
2021/06/30 05:57:39;;;;;;;2.45;2.00;;;28.20;52.60;;;;;;4993305;28;20034;-81
2021/06/30 06:00:08;;;;;;;6.13;2.20;;;29.10;50.00;;;;;;4994553;28;20551;-80
2021/06/30 06:02:34;;;;;;;4.45;2.08;;;29.80;48.90;;;;;;4995772;28;20030;-81
2021/06/30 06:05:00;;;;;;;4.23;2.20;;;30.70;46.70;;;;;;4994426;28;20490;-82
2021/06/30 06:07:26;;;;;;;5.22;1.98;;;30.90;45.00;;;;;;4993271;28;20125;-84
2021/06/30 06:09:51;;;;;;;2.85;1.80;;;31.00;45.10;;;;;;4994355;28;20023;-83
2021/06/30 06:12:17;;;;;;;1.98;1.70;;;31.50;44.20;;;;;;4993874;28;20116;-82
2021/06/30 06:14:43;;;;;;;3.63;1.95;;;29.90;44.10;;;;;;4994542;28;20048;-81
2021/06/30 06:17:09;;;;;;;5.03;2.13;;;28.50;48.00;;;;;;4994160;28;20038;-84
2021/06/30 06:19:36;;;;;;;4.13;2.30;;;29.00;48.70;;;;;;4994821;28;20022;-84
2021/06/30 06:22:04;;;;;;;4.40;2.38;;;30.40;46.30;;;;;;4994472;28;20023;-83
2021/06/30 06:24:31;;;;;;;3.05;1.67;;;31.30;43.80;;;;;;4994226;28;20101;-81
2021/06/30 06:26:57;;;;;;;5.38;4.25;;;32.10;42.90;;;;;;4994546;28;20373;-84
2021/06/30 06:29:24;;;;;;;4.40;1.93;;;33.20;41.40;;;;;;4994218;28;20026;-84
2021/06/30 06:31:50;;;;;;;4.63;2.38;;;34.00;39.60;;;;;;4993906;28;20440;-82
2021/06/30 06:34:21;;;;;;;5.38;2.10;;;33.10;39.90;;;;;;4993486;28;20038;-82
2021/06/30 06:36:48;;;;;;;3.20;1.90;;;33.00;40.10;;;;;;4993873;28;20029;-82
2021/06/30 06:39:15;;;;;;;3.60;2.20;;;33.00;40.10;;;;;;4993766;28;20023;-82
2021/06/30 06:41:41;;;;;;;4.30;2.17;;;33.30;39.10;;;;;;4995871;28;20105;-81
2021/06/30 06:44:08;;;;;;;6.47;2.20;;;33.00;40.30;;;;;;4996713;28;20023;-82
2021/06/30 06:46:38;;;;;;;3.88;1.80;;;33.20;39.90;;;;;;4993357;28;20046;-83
2021/06/30 06:49:08;;;;;;;4.13;2.15;;;32.30;40.40;;;;;;4993298;28;20544;-82
2021/06/30 06:51:37;;;;;;;8.57;3.17;;;31.40;42.20;;;;;;4991119;28;20093;-85
2021/06/30 06:54:05;;;;;;;5.63;2.30;;;31.20;41.90;;;;;;4994320;28;20061;-81
2021/06/30 06:56:31;;;;;;;3.53;2.30;;;30.50;42.60;;;;;;4993699;28;20026;-80
2021/06/30 06:58:57;;;;;;;3.22;2.05;;;30.30;43.50;;;;;;4992522;28;20030;-82
2021/06/30 07:01:24;;;;;;;3.25;1.90;;;30.30;42.90;;;;;;4993450;28;20093;-83
2021/06/30 07:03:50;;;;;;;4.85;1.65;;;30.60;43.30;;;;;;4981122;28;20025;-83
2021/06/30 07:06:17;;;;;;;4.22;2.10;;;30.60;43.00;;;;;;4993499;28;20395;-82
2021/06/30 07:08:43;;;;;;;3.53;1.65;;;31.50;42.30;;;;;;4992894;28;20022;-81
2021/06/30 07:11:10;;;;;;;5.63;2.42;;;;;;;;;;4992456;28;20441;-84
2021/06/30 07:13:36;;;;;;;4.45;1.85;;;34.50;37.00;;;;;;4992802;28;20026;-79
2021/06/30 07:16:04;;;;;;;6.03;2.25;;;34.30;35.50;;;;;;4993349;28;20052;-82
2021/06/30 07:18:34;;;;;;;4.18;1.85;;;33.20;37.30;;;;;;4994781;28;20101;-84
2021/06/30 07:21:02;;;;;;;5.32;2.22;;;32.10;39.20;;;;;;4999272;28;20034;-80
2021/06/30 07:23:29;;;;;;;6.63;2.58;;;31.90;39.60;;;;;;4989429;28;20491;-84
2021/06/30 07:25:55;;;;;;;4.90;2.70;;;31.40;40.60;;;;;;4991625;28;20030;-85
2021/06/30 07:28:22;;;;;;;5.45;2.20;;;30.70;41.40;;;;;;4993615;28;20138;-85
2021/06/30 07:30:48;;;;;;;3.53;2.10;;;30.00;42.50;;;;;;4993713;28;20050;-82
2021/06/30 07:33:14;;;;;;;3.53;2.17;;;29.40;43.10;;;;;;4993012;28;20033;-82
2021/06/30 07:35:40;;;;;;;4.82;2.60;;;29.90;42.00;;;;;;4992261;28;20050;-85
2021/06/30 07:38:07;;;;;;;7.18;2.30;;;30.80;41.70;;;;;;4998486;28;20420;-84
2021/06/30 07:40:33;;;;;;;3.38;1.98;;;;;;;;;;4993783;28;20119;-85
2021/06/30 07:42:59;;;;;;;6.55;2.60;;;33.00;39.30;;;;;;4992913;28;20101;-86
2021/06/30 07:45:25;;;;;;;5.97;2.65;;;34.70;35.10;;;;;;4995434;28;20027;-89
2021/06/30 07:47:51;;;;;;;3.20;2.20;;;34.80;35.60;;;;;;4995391;28;20763;-83
2021/06/30 07:50:17;;;;;;;5.25;1.77;;;35.70;34.00;;;;;;4993479;28;20038;-83
2021/06/30 07:52:48;;;;;;;;;;;35.10;33.80;;;;;;4993183;28;20507;-83
2021/06/30 07:55:16;;;;;;;6.05;2.60;;;34.60;35.70;;;;;;4991646;28;19913;-86
2021/06/30 07:57:42;;;;;;;8.98;2.97;;;35.00;34.80;;;;;;4988890;28;20034;-85
2021/06/30 08:00:08;;;;;;;5.30;2.20;;;36.70;33.60;;;;;;4988834;28;20088;-85
2021/06/30 08:02:35;;;;;;;;;;;37.80;31.80;;;;;;4992982;28;20026;-84
2021/06/30 08:05:02;;;;;;;3.28;1.70;;;38.50;32.90;;;;;;4992698;28;19912;-87
2021/06/30 08:07:28;;;;;;;3.40;2.10;;;38.70;30.20;;;;;;4992349;28;20026;-84
2021/06/30 08:09:54;;;;;;;6.80;2.27;;;35.90;31.00;;;;;;4993381;28;20482;-84
2021/06/30 08:12:20;;;;;;;3.03;2.10;;;33.30;34.30;;;;;;4991936;28;20050;-86
2021/06/30 08:14:45;;;;;;;4.03;2.57;;;31.30;36.40;;;;;;4992456;28;20518;-82
2021/06/30 08:17:11;;;;;;;6.78;2.70;;;29.60;39.90;;;;;;4992537;28;20141;-81
2021/06/30 08:19:37;;;;;;;6.55;2.75;;;28.70;41.50;;;;;;4992681;28;20077;-80
2021/06/30 08:22:03;;;;;;;6.13;3.20;;;28.00;43.00;;;;;;4992842;28;20117;-82
2021/06/30 08:24:29;;;;;;;3.20;2.80;;;27.60;44.80;;;;;;4994295;28;20037;-82
2021/06/30 08:26:56;;;;;;;4.50;2.78;;;27.00;45.30;;;;;;4995857;28;20030;-86
2021/06/30 08:29:24;;;;;;;5.32;2.80;;;26.50;46.60;;;;;;4995473;28;20026;-89
2021/06/30 08:31:50;;;;;;;6.70;2.92;;;26.00;48.00;;;;;;5004095;28;20031;-87
2021/06/30 08:34:16;;;;;;;4.65;3.15;;;25.60;48.80;;;;;;4993448;28;20050;-87
2021/06/30 08:36:42;;;;;;;5.30;2.97;;;25.10;49.80;;;;;;4993921;28;20049;-82
2021/06/30 08:39:09;;;;;;;9.38;3.85;;;24.80;50.00;;;;;;4992278;28;20026;-81
2021/06/30 08:41:35;;;;;;;5.45;3.15;;;24.20;52.20;;;;;;4993428;28;20026;-83
2021/06/30 08:44:01;;;;;;;4.53;3.08;;;23.80;53.80;;;;;;4992413;28;20018;-81
2021/06/30 08:46:27;;;;;;;3.42;2.42;;;23.80;54.20;;;;;;4991889;28;20049;-83
2021/06/30 08:48:57;;;;;;;6.17;3.00;;;23.90;54.00;;;;;;4992428;28;20033;-82
2021/06/30 08:51:28;;;;;;;6.28;2.95;;;24.00;54.30;;;;;;4991857;28;20022;-82
2021/06/30 08:53:55;;;;;;;5.60;3.45;;;24.10;53.90;;;;;;4991963;28;20452;-82
2021/06/30 08:56:31;;;;;;;;;;;24.00;54.60;;;;;;4993003;28;20031;-82
2021/06/30 08:58:58;;;;;;;4.07;2.92;;;24.10;53.50;;;;;;4995208;28;20319;-82
2021/06/30 09:01:25;;;;;;;;;;;24.00;54.40;;;;;;4995058;28;20053;-83
2021/06/30 09:03:53;;;;;;;;;;;23.90;54.00;;;;;;4996453;28;19960;-84
2021/06/30 09:06:19;;;;;;;8.00;3.55;;;23.90;54.10;;;;;;4994123;28;20463;-81
2021/06/30 09:08:48;;;;;;;6.82;3.70;;;23.90;55.50;;;;;;4988802;28;20066;-81
2021/06/30 09:11:19;;;;;;;4.03;3.13;;;23.90;55.50;;;;;;4995330;28;20081;-82
2021/06/30 09:13:49;;;;;;;4.22;3.05;;;23.90;55.80;;;;;;4995320;28;20460;-80
2021/06/30 09:16:15;;;;;;;5.28;3.55;;;24.10;56.10;;;;;;4995378;28;20455;-81
2021/06/30 09:18:41;;;;;;;7.97;3.97;;;24.40;55.70;;;;;;4993728;28;20072;-81
2021/06/30 09:21:24;;;;;;;3.20;2.90;;;24.50;55.30;;;;;;4998572;28;20060;-82
2021/06/30 09:24:07;;;;;;;5.90;2.83;;;24.80;54.80;;;;;;4996135;28;20462;-83
2021/06/30 09:26:36;;;;;;;8.48;3.88;;;24.30;54.80;;;;;;4994853;28;20122;-81
2021/06/30 09:29:10;;;;;;;4.38;3.47;;;23.70;56.30;;;;;;4995400;28;20061;-84
2021/06/30 09:31:40;;;;;;;7.97;3.97;;;23.30;58.30;;;;;;4995559;28;20019;-82
2021/06/30 09:34:06;;;;;;;4.68;4.13;;;22.90;59.70;;;;;;4995469;28;20105;-81
2021/06/30 09:36:45;;;;;;;7.07;4.80;;;23.00;60.50;;;;;;4995053;28;20030;-82
2021/06/30 09:39:12;;;;;;;9.27;3.40;;;22.90;60.00;;;;;;5006679;28;20018;-81
2021/06/30 09:41:43;;;;;;;4.47;3.08;;;22.90;59.70;;;;;;4995303;28;20042;-83
2021/06/30 09:44:13;;;;;;;3.50;2.95;;;22.90;59.70;;;;;;4994966;28;20057;-83
2021/06/30 09:46:41;;;;;;;7.25;3.45;;;23.00;59.40;;;;;;4987800;28;20144;-83
2021/06/30 09:49:15;;;;;;;5.72;3.15;;;23.10;59.50;;;;;;4995350;28;20026;-84
2021/06/30 09:51:42;;;;;;;4.78;3.17;;;23.50;59.00;;;;;;4993872;28;20022;-84
2021/06/30 09:54:10;;;;;;;6.25;3.05;;;23.70;58.20;;;;;;4994919;28;20018;-85
2021/06/30 09:56:38;;;;;;;5.43;3.13;;;23.50;58.40;;;;;;4994503;28;20153;-81
2021/06/30 09:59:24;;;;;;;4.22;3.75;;;23.40;59.30;;;;;;4995290;28;20105;-82
2021/06/30 10:02:02;;;;;;;6.43;4.38;;;23.10;59.30;;;;;;4994519;28;20040;-81
2021/06/30 10:04:34;;;;;;;6.65;3.10;;;22.90;60.60;;;;;;4993205;28;20149;-82
2021/06/30 10:07:06;;;;;;;6.43;3.10;;;22.80;60.90;;;;;;4994723;28;20074;-83
2021/06/30 10:09:32;;;;;;;4.32;2.97;;;22.90;61.40;;;;;;4995001;28;20068;-82
2021/06/30 10:12:11;;;;;;;5.88;3.47;;;23.10;61.20;;;;;;4993898;28;20050;-82
2021/06/30 10:14:43;;;;;;;4.50;3.58;;;23.40;60.40;;;;;;4994332;28;20069;-83
2021/06/30 10:17:11;;;;;;;6.47;3.50;;;23.60;59.90;;;;;;4994316;28;20053;-82
2021/06/30 10:19:38;;;;;;;7.07;3.78;;;23.50;59.70;;;;;;4994611;28;20138;-84
2021/06/30 10:22:06;;;;;;;10.05;4.25;;;23.40;60.50;;;;;;5003342;28;20032;-84
2021/06/30 10:24:32;;;;;;;6.03;3.90;;;23.10;61.10;;;;;;4989888;28;20078;-81
2021/06/30 10:26:59;;;;;;;5.78;3.50;;;22.80;62.20;;;;;;4989261;28;20073;-80
2021/06/30 10:29:28;;;;;;;5.00;3.17;;;22.60;62.40;;;;;;4993972;28;20022;-79
2021/06/30 10:32:01;;;;;;;5.72;3.30;;;;;;;;;;4994251;28;20026;-80
2021/06/30 10:34:43;;;;;;;7.80;4.18;;;22.20;64.10;;;;;;5005067;28;20077;-80
2021/06/30 10:37:21;;;;;;;4.90;3.17;;;21.60;66.30;;;;;;4994247;28;20487;-80
2021/06/30 10:39:52;;;;;;;4.22;2.88;;;21.50;66.40;;;;;;4992283;28;20041;-81
2021/06/30 10:42:34;;;;;;;6.53;2.83;;;21.30;67.00;;;;;;4994101;28;20494;-82
2021/06/30 10:45:16;;;;;;;4.40;3.25;;;21.30;67.20;;;;;;4992845;28;20037;-81
2021/06/30 10:47:47;;;;;;;9.05;4.82;;;21.30;67.70;;;;;;4989422;28;20037;-83
2021/06/30 10:50:35;;;;;;;5.75;3.50;;;21.40;68.10;;;;;;4993933;28;20026;-80
2021/06/30 10:53:01;;;;;;;4.53;2.90;;;21.80;67.00;;;;;;4992168;28;20022;-82
2021/06/30 10:55:33;;;;;;;3.67;3.00;;;22.20;66.10;;;;;;4993418;28;20029;-81
2021/06/30 10:58:14;;;;;;;7.35;3.28;;;22.60;64.90;;;;;;4993272;28;20022;-83
2021/06/30 11:00:54;;;;;;;3.45;2.53;;;23.00;64.00;;;;;;4994021;28;20034;-82
2021/06/30 11:03:33;;;;;;;5.45;2.95;;;23.10;63.10;;;;;;4991993;28;20081;-80
2021/06/30 11:06:24;;;;;;;7.68;3.67;;;23.30;62.10;;;;;;4995731;28;20029;-80
2021/06/30 11:08:51;;;;;;;6.50;3.35;;;23.20;62.20;;;;;;4988004;28;20030;-82
2021/06/30 11:11:18;;;;;;;8.23;4.22;;;22.80;63.10;;;;;;4994593;28;20054;-81
2021/06/30 11:13:54;;;;;;;13.77;3.28;;;22.50;64.80;;;;;;4992442;28;20377;-80
2021/06/30 11:16:45;;;;;;;7.05;3.40;;;22.20;65.30;;;;;;4993073;28;20026;-81
2021/06/30 11:19:17;;;;;;;10.20;4.15;;;22.00;66.40;;;;;;4993388;28;20105;-83
2021/06/30 11:21:52;;;;;;;7.15;3.63;;;21.90;66.80;;;;;;4993832;28;20023;-83
2021/06/30 11:24:38;;;;;;;8.10;3.15;;;22.00;66.90;;;;;;4994161;28;20030;-80
2021/06/30 11:27:16;;;;;;;4.32;2.63;;;22.60;65.40;;;;;;5001035;28;20038;-85
2021/06/30 11:32:09;;;;;;;5.78;2.33;;;23.10;62.60;;;;;;4994718;28;20065;-82
2021/06/30 11:34:39;;;;;;;7.55;2.33;;;23.30;62.50;;;;;;4993395;28;20023;-81
2021/06/30 11:37:06;;;;;;;5.60;2.22;;;23.50;61.60;;;;;;4993251;28;20030;-82
2021/06/30 11:39:33;;;;;;;3.97;1.80;;;23.40;61.10;;;;;;4992979;28;20387;-84
2021/06/30 11:42:01;;;;;;;9.43;2.00;;;23.30;62.00;;;;;;4993164;28;20030;-80
2021/06/30 11:44:38;;;;;;;3.20;1.65;;;23.30;61.40;;;;;;4993104;28;20025;-82
2021/06/30 11:47:05;;;;;;;;;;;23.10;62.00;;;;;;4986938;28;20030;-81
2021/06/30 11:49:31;;;;;;;4.38;1.83;;;22.90;62.00;;;;;;4992892;28;19905;-83
2021/06/30 11:52:01;;;;;;;4.87;2.30;;;22.80;62.90;;;;;;4993602;28;20022;-82
2021/06/30 11:54:28;;;;;;;7.30;2.13;;;22.60;63.60;;;;;;4993296;28;20383;-82
2021/06/30 11:56:54;;;;;;;5.30;2.77;;;22.20;65.10;;;;;;4991889;28;20026;-82
2021/06/30 11:59:22;;;;;;;6.53;2.08;;;22.00;66.10;;;;;;4993301;28;20101;-83
2021/06/30 12:01:53;;;;;;;2.58;2.17;;;22.10;66.10;;;;;;4992937;28;20026;-82
2021/06/30 12:04:23;;;;;;;5.97;2.10;;;22.20;65.60;;;;;;4999361;28;20033;-83
2021/06/30 12:07:03;;;;;;;4.70;1.83;;;22.00;66.10;;;;;;4996804;28;20415;-81
2021/06/30 12:09:41;;;;;;;6.43;2.42;;;21.70;67.00;;;;;;4996797;28;20030;-81
2021/06/30 12:12:11;;;;;;;7.82;3.17;;;21.60;68.30;;;;;;4994228;28;20062;-83
2021/06/30 12:14:49;;;;;;;8.27;2.72;;;21.70;68.80;;;;;;4983315;28;20112;-82
2021/06/30 12:17:18;;;;;;;5.30;3.10;;;22.00;67.70;;;;;;4992481;28;20387;-83
2021/06/30 12:19:50;;;;;;;4.50;2.38;;;21.90;67.40;;;;;;4994414;28;20029;-81
2021/06/30 12:22:21;;;;;;;4.63;2.83;;;21.80;67.70;;;;;;4996536;28;20036;-83
2021/06/30 12:24:54;;;;;;;3.78;2.80;;;21.70;67.90;;;;;;4993388;28;20022;-82
2021/06/30 12:27:21;;;;;;;7.93;3.65;;;21.70;68.70;;;;;;4991749;28;20049;-81
2021/06/30 12:29:58;;;;;;;5.35;3.03;;;22.00;68.50;;;;;;4989485;28;20015;-81
2021/06/30 12:32:25;;;;;;;4.43;2.95;;;22.30;67.70;;;;;;4993553;28;20117;-86
2021/06/30 12:34:51;;;;;;;;;;;22.60;66.80;;;;;;4993446;28;20076;-85
2021/06/30 12:37:21;;;;;;;5.83;3.20;;;22.70;66.30;;;;;;4995796;28;20322;-85
2021/06/30 12:39:56;;;;;;;5.55;2.92;;;22.60;66.00;;;;;;4994441;28;20439;-84
2021/06/30 12:42:22;;;;;;;4.70;2.78;;;22.40;66.50;;;;;;4991294;28;20018;-86
2021/06/30 12:45:06;;;;;;;3.40;2.53;;;22.10;67.40;;;;;;4999692;28;20406;-85
2021/06/30 12:47:32;;;;;;;6.75;3.13;;;21.60;68.70;;;;;;4999983;28;20081;-86
2021/06/30 12:50:08;;;;;;;4.60;2.65;;;21.30;70.60;;;;;;4992867;28;20038;-87
2021/06/30 12:52:34;;;;;;;6.35;2.95;;;21.20;70.60;;;;;;4999441;28;20030;-82
2021/06/30 12:55:01;;;;;;;5.00;3.00;;;21.20;71.10;;;;;;4997043;28;20098;-86
2021/06/30 12:57:28;;;;;;;5.25;2.80;;;21.00;71.40;;;;;;4985599;28;20034;-83
2021/06/30 13:00:17;;;;;;;6.63;3.13;;;20.90;72.20;;;;;;4999153;28;20064;-83